Main page
METAR-TAF:

METAR-TAF

Airports :

Khartoum, Sudan

Khartoum International Airport

latitude: 15-36N, longitude: 032-33E, elevation: 382 m

Current weather observation

The report was made 21 minutes ago, at 13:30 UTC
Wind 12 kt from the South/Southwest
Temperature 38°C
Humidity 29%
Pressure 1005 hPa
Visibility 10 km or more
no clouds below 1500 m and no cumulonimbus

METAR: HSSS 231330Z 21012KT CAVOK 38/17 Q1005 NOSIG

Time: 16:51 (13:51 UTC)

Forecast

The report was made 2 hours and 51 minutes ago, at 11:00 UTC
Forecast valid from 23 at 12 UTC to 24 at 18 UTC
Wind 10 kt from the Southwest with gusts up to 20 kt
Visibility 10 km or more
Scattered clouds at a height of 4000 ft
Scattered clouds at a height of 14000 ft
Temporary
from 24 at 22 UTC to 25 at 02 UTC
Visibility: 7000 m

TAF: HSSS 231100Z 2312/2418 22010G20KT 9999 SCT040 SCT140 TEMPO 2422/2502 7000

Weather observations and forecasts of more than 4000 airports (METAR and TAF reports).

The available stations are represented by yellow and red dots on the map.

Hover mouse over dot to see the name of the station.

Then click to see weather observations and forecasts.

To change the map : click on the green buttons with a black cross to zoom in, on the green button with a dash to zoom out, or on the green arrows for adjacent maps.


METAR-TAF: